Time;durP1;ratioP1;P1;durP2;ratioP2;P2;SDS_P1;SDS_P2;PMS_P1;PMS_P2;Temp;Humidity;BMP_temperature;BMP_pressure;BME280_temperature;BME280_humidity;BME280_pressure;Samples;Min_cycle;Max_cycle;Signal;HPM_P1;HPM_P2
2021/05/10 00:00:55;;;;;;;12.43;9.27;;;15.90;99.90;;;;;;6240056;23;20026;-89
2021/05/10 00:03:22;;;;;;;10.43;8.40;;;15.70;99.90;;;;;;6240902;23;20016;-90
2021/05/10 00:05:49;;;;;;;13.68;8.95;;;15.70;99.90;;;;;;6241428;22;20012;-90
2021/05/10 00:08:15;;;;;;;15.85;9.43;;;15.60;99.90;;;;;;6241764;22;20016;-89
2021/05/10 00:10:42;;;;;;;22.13;9.27;;;15.50;99.90;;;;;;6240095;23;20020;-90
2021/05/10 00:13:10;;;;;;;16.67;8.23;;;15.40;99.90;;;;;;6240383;23;20446;-87
2021/05/10 00:15:36;;;;;;;11.73;8.65;;;15.40;99.90;;;;;;6242226;23;20016;-91
2021/05/10 00:18:04;;;;;;;10.95;8.55;;;15.40;99.90;;;;;;6241992;23;20028;-88
2021/05/10 00:20:34;;;;;;;17.17;9.55;;;15.30;99.90;;;;;;6240085;23;20063;-86
2021/05/10 00:23:01;;;;;;;12.30;8.30;;;15.30;99.90;;;;;;6215657;23;20093;-86
2021/05/10 00:25:27;;;;;;;9.50;8.52;;;15.30;99.90;;;;;;6240131;23;20087;-90
2021/05/10 00:27:53;;;;;;;13.75;8.90;;;15.20;99.90;;;;;;6239605;22;20081;-89
2021/05/10 00:30:21;;;;;;;12.13;9.43;;;15.20;99.90;;;;;;6239686;23;20034;-89
2021/05/10 00:32:47;;;;;;;13.88;8.43;;;15.20;99.90;;;;;;6239738;22;20036;-89
2021/05/10 00:35:14;;;;;;;13.63;9.50;;;15.10;99.90;;;;;;6241478;23;20024;-89
2021/05/10 00:37:40;;;;;;;18.25;9.85;;;15.00;99.90;;;;;;6239139;23;20016;-87
2021/05/10 00:40:11;;;;;;;16.50;10.37;;;15.00;99.90;;;;;;6240304;23;20012;-88
2021/05/10 00:42:37;;;;;;;16.17;10.70;;;14.90;99.90;;;;;;6239270;23;20397;-88
2021/05/10 00:45:05;;;;;;;18.45;10.07;;;14.90;99.90;;;;;;6241556;22;20020;-88
2021/05/10 00:47:31;;;;;;;10.00;8.50;;;14.90;99.90;;;;;;6239962;23;20020;-87
2021/05/10 00:49:56;;;;;;;12.85;9.60;;;14.80;99.90;;;;;;6256333;22;20500;-88
2021/05/10 00:52:22;;;;;;;17.10;10.90;;;14.80;99.90;;;;;;6214980;23;20046;-89
2021/05/10 00:54:49;;;;;;;17.60;9.57;;;14.70;99.90;;;;;;6240751;23;20052;-88
2021/05/10 00:57:16;;;;;;;18.42;9.55;;;14.70;99.90;;;;;;6241310;23;20377;-88
2021/05/10 00:59:44;;;;;;;18.27;10.18;;;14.70;99.90;;;;;;6240915;23;20028;-90
2021/05/10 01:02:10;;;;;;;20.27;10.57;;;14.70;99.90;;;;;;6215190;23;20438;-88
2021/05/10 01:04:36;;;;;;;13.15;9.85;;;14.70;99.90;;;;;;6214659;23;20016;-87
2021/05/10 01:07:03;;;;;;;19.45;10.23;;;14.60;99.90;;;;;;6190434;23;20020;-89
2021/05/10 01:09:29;;;;;;;14.00;9.20;;;14.60;99.90;;;;;;6215147;23;20091;-88
2021/05/10 01:11:56;;;;;;;15.57;9.13;;;14.60;99.90;;;;;;6241422;23;20102;-88
2021/05/10 01:14:22;;;;;;;15.07;10.93;;;14.50;99.90;;;;;;6190247;23;20334;-88
2021/05/10 01:16:48;;;;;;;13.50;9.10;;;14.50;99.90;;;;;;6213624;23;20565;-86
2021/05/10 01:19:16;;;;;;;16.55;9.60;;;14.50;99.90;;;;;;6214890;23;20017;-87
2021/05/10 01:21:45;;;;;;;13.80;8.43;;;14.50;99.90;;;;;;6241086;23;20103;-87
2021/05/10 01:24:11;;;;;;;15.13;8.63;;;14.40;99.90;;;;;;6241292;23;20315;-87
2021/05/10 01:26:39;;;;;;;17.80;9.65;;;14.40;99.90;;;;;;6214393;23;20023;-86
2021/05/10 01:29:04;;;;;;;12.65;8.50;;;14.40;99.90;;;;;;6241772;23;20017;-88
2021/05/10 01:31:30;;;;;;;15.52;9.20;;;14.40;99.90;;;;;;6214325;23;20046;-89
2021/05/10 01:33:56;;;;;;;14.60;8.68;;;14.40;99.90;;;;;;6240470;23;20016;-90
2021/05/10 01:36:22;;;;;;;15.20;9.55;;;14.30;99.90;;;;;;6215100;23;20020;-89
2021/05/10 01:38:48;;;;;;;16.42;10.10;;;14.30;99.90;;;;;;6213654;23;20500;-87
2021/05/10 01:41:13;;;;;;;20.20;9.95;;;14.30;99.90;;;;;;6189813;23;20016;-89
2021/05/10 01:43:39;;;;;;;21.75;9.57;;;14.30;99.90;;;;;;6214278;23;20028;-87
2021/05/10 01:46:05;;;;;;;14.75;8.40;;;14.40;99.90;;;;;;6215056;23;20020;-90
2021/05/10 01:48:31;;;;;;;15.13;8.93;;;14.40;99.90;;;;;;6214478;23;20016;-88
2021/05/10 01:50:57;;;;;;;26.73;10.48;;;14.40;99.90;;;;;;6232517;23;20016;-89
2021/05/10 01:53:23;;;;;;;16.65;8.40;;;14.30;99.90;;;;;;6240991;23;20241;-88
2021/05/10 01:55:48;;;;;;;16.17;9.23;;;14.40;99.90;;;;;;6240365;23;20095;-87
2021/05/10 01:58:14;;;;;;;15.20;10.48;;;14.30;99.90;;;;;;6243507;23;20012;-89
2021/05/10 02:00:43;;;;;;;15.85;8.32;;;14.30;99.90;;;;;;6241694;23;20022;-86
2021/05/10 02:03:14;;;;;;;14.55;9.65;;;14.30;99.90;;;;;;6243125;22;20020;-89
2021/05/10 02:05:41;;;;;;;23.05;10.43;;;14.20;99.90;;;;;;6253109;22;20016;-87
2021/05/10 02:08:09;;;;;;;13.50;10.02;;;14.20;99.90;;;;;;6242955;22;20020;-91
2021/05/10 02:10:41;;;;;;;16.38;10.38;;;14.20;99.90;;;;;;6243508;22;20015;-90
2021/05/10 02:13:13;;;;;;;22.08;11.20;;;14.20;99.90;;;;;;6253522;22;20024;-90
2021/05/10 02:16:05;;;;;;;17.80;10.27;;;14.20;99.90;;;;;;6241320;23;20033;-86
2021/05/10 02:18:35;;;;;;;13.60;9.70;;;14.20;99.90;;;;;;6253840;23;20031;-89
2021/05/10 02:21:03;;;;;;;13.88;10.98;;;14.10;99.90;;;;;;6216009;23;20086;-90
2021/05/10 02:23:34;;;;;;;17.92;11.52;;;14.10;99.90;;;;;;6242137;23;20068;-92
2021/05/10 02:26:02;;;;;;;15.30;11.80;;;14.10;99.90;;;;;;6252072;22;20656;-89
2021/05/10 02:28:30;;;;;;;14.43;10.13;;;14.00;99.90;;;;;;6243127;22;20017;-90
2021/05/10 02:30:59;;;;;;;19.05;11.95;;;14.00;99.90;;;;;;6239895;23;20016;-89
2021/05/10 02:33:27;;;;;;;16.90;12.23;;;14.00;99.90;;;;;;6243092;22;20442;-89
2021/05/10 02:35:55;;;;;;;15.82;11.23;;;14.00;99.90;;;;;;6241680;22;20023;-89
2021/05/10 02:38:21;;;;;;;18.67;11.43;;;13.90;99.90;;;;;;6243438;22;20020;-90
2021/05/10 02:40:48;;;;;;;15.90;10.85;;;13.90;99.90;;;;;;6240846;23;20074;-87
2021/05/10 02:43:32;;;;;;;13.88;9.80;;;13.90;99.90;;;;;;6253141;22;20050;-88
2021/05/10 02:45:59;;;;;;;15.18;10.60;;;13.90;99.90;;;;;;6240881;23;20038;-89
2021/05/10 02:48:25;;;;;;;15.93;10.40;;;13.80;99.90;;;;;;6241744;23;20017;-91
2021/05/10 02:50:51;;;;;;;16.35;11.48;;;13.80;99.90;;;;;;6240509;23;20020;-89
2021/05/10 02:53:17;;;;;;;19.00;10.75;;;13.90;99.90;;;;;;6241563;23;20020;-90
2021/05/10 02:55:44;;;;;;;10.38;9.30;;;13.90;99.90;;;;;;6215958;23;20214;-88
2021/05/10 02:58:10;;;;;;;17.77;11.25;;;13.90;99.90;;;;;;6215860;23;20035;-90
2021/05/10 03:00:36;;;;;;;14.40;10.45;;;14.00;99.90;;;;;;6241439;23;20030;-89
2021/05/10 03:03:02;;;;;;;13.35;10.73;;;14.00;99.90;;;;;;6241961;23;20019;-88
2021/05/10 03:05:28;;;;;;;18.98;12.82;;;14.10;99.90;;;;;;6242521;22;20024;-89
2021/05/10 03:07:55;;;;;;;16.70;11.10;;;14.10;99.90;;;;;;6241920;23;20023;-92
2021/05/10 03:10:23;;;;;;;15.95;11.18;;;14.20;99.90;;;;;;6241574;23;20016;-90
2021/05/10 03:12:50;;;;;;;17.25;12.32;;;14.20;99.90;;;;;;6240797;23;20046;-89
2021/05/10 03:15:19;;;;;;;14.38;11.68;;;14.30;99.90;;;;;;6243389;22;20012;-90
2021/05/10 03:17:45;;;;;;;16.77;11.70;;;14.30;99.90;;;;;;6242825;22;20023;-87
2021/05/10 03:20:14;;;;;;;15.45;12.15;;;14.40;99.90;;;;;;6240802;23;20024;-90
2021/05/10 03:22:41;;;;;;;17.08;12.57;;;14.40;99.90;;;;;;6243088;22;20398;-90
2021/05/10 03:25:09;;;;;;;16.58;11.25;;;14.40;99.90;;;;;;6242296;22;20008;-89
2021/05/10 03:27:41;;;;;;;15.43;11.23;;;14.40;99.90;;;;;;6216817;23;20016;-91
2021/05/10 03:30:25;;;;;;;17.17;13.10;;;14.40;99.90;;;;;;6250946;23;20059;-92
2021/05/10 03:32:52;;;;;;;16.95;11.35;;;14.50;99.90;;;;;;6250446;23;20044;-89
2021/05/10 03:35:19;;;;;;;13.40;11.57;;;14.60;99.90;;;;;;6242180;23;20020;-92
2021/05/10 03:37:45;;;;;;;18.70;11.20;;;14.60;99.90;;;;;;6241371;23;20127;-92
2021/05/10 03:40:13;;;;;;;14.98;11.55;;;14.70;99.90;;;;;;6242197;22;20027;-89
2021/05/10 03:42:40;;;;;;;20.15;10.27;;;14.70;99.90;;;;;;6241511;23;20147;-88
2021/05/10 03:45:10;;;;;;;17.70;11.88;;;14.70;99.90;;;;;;6241220;23;20026;-93
2021/05/10 03:47:40;;;;;;;19.77;11.10;;;14.80;99.90;;;;;;6251677;23;20434;-91
2021/05/10 03:50:20;;;;;;;16.60;11.15;;;14.80;99.90;;;;;;6241465;22;20016;-90
2021/05/10 03:52:48;;;;;;;19.30;10.65;;;14.80;99.90;;;;;;6226363;23;20503;-91
2021/05/10 03:55:18;;;;;;;22.98;11.20;;;14.90;99.90;;;;;;6215971;23;20095;-91
2021/05/10 03:57:44;;;;;;;14.05;10.80;;;14.90;99.90;;;;;;6216173;23;20020;-92
2021/05/10 04:00:12;;;;;;;16.38;12.05;;;15.00;99.90;;;;;;6241708;23;20477;-92
2021/05/10 04:02:39;;;;;;;22.83;11.60;;;14.90;99.90;;;;;;6215975;23;20023;-88
2021/05/10 04:07:53;;;;;;;19.50;11.95;;;14.90;99.90;;;;;;6242210;23;20027;-91
2021/05/10 04:15:29;;;;;;;13.95;10.70;;;14.90;99.90;;;;;;6230417;23;20012;-92
2021/05/10 04:17:55;;;;;;;13.63;9.65;;;14.90;99.90;;;;;;6188852;23;20023;-89
2021/05/10 04:20:20;;;;;;;16.75;9.60;;;14.90;99.90;;;;;;6242722;23;20016;-90
2021/05/10 04:22:47;;;;;;;15.30;10.70;;;14.90;99.90;;;;;;6242625;23;20330;-90
2021/05/10 04:25:13;;;;;;;15.05;10.35;;;15.00;99.90;;;;;;6190066;23;20092;-91
2021/05/10 04:27:39;;;;;;;13.63;10.10;;;15.00;99.90;;;;;;6190706;23;20012;-89
2021/05/10 04:30:05;;;;;;;20.35;11.77;;;15.00;99.90;;;;;;6241507;23;20458;-90
2021/05/10 04:32:36;;;;;;;13.70;9.75;;;15.10;99.90;;;;;;6216529;23;20040;-89
2021/05/10 04:35:02;;;;;;;10.20;9.13;;;15.10;99.90;;;;;;6241571;23;20031;-91
2021/05/10 04:37:28;;;;;;;13.02;9.70;;;15.10;99.90;;;;;;6191145;23;20019;-90
2021/05/10 04:39:54;;;;;;;12.35;9.35;;;15.10;99.90;;;;;;6214967;23;20087;-87
2021/05/10 04:42:20;;;;;;;15.20;10.07;;;15.20;99.90;;;;;;6215499;23;20067;-90
2021/05/10 04:44:50;;;;;;;21.33;12.05;;;15.20;99.90;;;;;;6192588;23;20036;-91
2021/05/10 04:47:17;;;;;;;19.77;9.30;;;15.20;99.90;;;;;;6214759;23;20319;-91
2021/05/10 04:49:43;;;;;;;11.23;8.95;;;15.30;99.90;;;;;;6218605;23;20030;-91
2021/05/10 04:52:09;;;;;;;14.00;9.18;;;15.30;99.90;;;;;;6214659;23;20071;-92
2021/05/10 04:54:38;;;;;;;11.30;8.30;;;15.30;99.90;;;;;;6240864;23;20020;-91
2021/05/10 04:57:05;;;;;;;12.07;9.38;;;15.30;99.90;;;;;;6214596;23;20024;-90
2021/05/10 04:59:32;;;;;;;11.93;9.10;;;15.30;99.90;;;;;;6240785;23;20044;-91
2021/05/10 05:01:58;;;;;;;13.30;9.52;;;15.30;99.90;;;;;;6239983;23;20016;-87
2021/05/10 05:04:24;;;;;;;15.77;10.38;;;15.30;99.90;;;;;;6242042;23;20020;-90
2021/05/10 05:06:50;;;;;;;11.77;9.02;;;15.30;99.90;;;;;;6240633;23;20365;-91
2021/05/10 05:09:15;;;;;;;12.30;9.20;;;15.30;99.90;;;;;;6239478;23;20027;-89
2021/05/10 05:11:41;;;;;;;10.85;8.88;;;15.40;99.90;;;;;;6215318;23;20031;-91
2021/05/10 05:14:07;;;;;;;35.45;9.45;;;15.40;99.90;;;;;;6240779;23;20019;-88
2021/05/10 05:16:33;;;;;;;21.05;8.35;;;15.40;99.90;;;;;;6240593;23;20508;-88
2021/05/10 05:18:59;;;;;;;14.60;8.82;;;15.50;99.90;;;;;;6239673;23;20031;-87
2021/05/10 05:21:25;;;;;;;12.88;8.68;;;15.50;99.90;;;;;;6215642;23;20315;-91
2021/05/10 05:23:51;;;;;;;12.95;9.50;;;15.50;99.90;;;;;;6242275;23;20016;-90
2021/05/10 05:26:16;;;;;;;11.70;8.73;;;15.60;99.90;;;;;;6240337;23;20309;-88
2021/05/10 05:28:42;;;;;;;12.45;9.15;;;15.60;99.90;;;;;;6241478;23;20034;-90
2021/05/10 05:31:08;;;;;;;11.73;8.77;;;15.70;99.90;;;;;;6239329;23;20024;-89
2021/05/10 05:33:34;;;;;;;13.10;9.80;;;15.70;99.90;;;;;;6241899;22;20012;-90
2021/05/10 05:36:00;;;;;;;13.48;9.18;;;15.70;99.90;;;;;;6241565;23;20073;-87
2021/05/10 05:38:34;;;;;;;12.95;8.65;;;15.70;99.90;;;;;;6251692;23;20030;-90
2021/05/10 05:41:00;;;;;;;10.57;8.00;;;15.80;99.90;;;;;;6241138;23;20015;-87
2021/05/10 05:43:26;;;;;;;8.43;6.28;;;15.90;99.90;;;;;;6241137;23;20825;-90
2021/05/10 05:45:52;;;;;;;10.27;4.60;;;16.10;99.90;;;;;;6215286;23;20385;-90
2021/05/10 05:48:18;;;;;;;6.40;3.45;;;16.30;99.90;;;;;;6239321;23;20026;-90
2021/05/10 05:50:44;;;;;;;5.88;3.40;;;16.50;99.90;;;;;;6241315;22;20031;-89
2021/05/10 05:53:09;;;;;;;3.42;3.13;;;16.70;99.90;;;;;;6213956;23;20070;-90
2021/05/10 05:55:35;;;;;;;4.30;3.05;;;16.90;99.90;;;;;;6241920;23;20020;-88
2021/05/10 05:58:02;;;;;;;6.63;2.47;;;17.20;99.90;;;;;;6214705;23;20016;-87
2021/05/10 06:00:28;;;;;;;3.80;1.65;;;17.40;99.90;;;;;;6214349;23;20024;-88
2021/05/10 06:02:55;;;;;;;4.25;1.70;;;17.60;99.90;;;;;;6241371;23;20020;-89
2021/05/10 06:05:20;;;;;;;10.23;1.88;;;17.80;99.90;;;;;;6213620;23;20047;-89
2021/05/10 06:07:48;;;;;;;4.35;1.80;;;17.90;99.90;;;;;;6240929;23;20431;-89
2021/05/10 06:10:19;;;;;;;3.42;1.50;;;18.00;99.90;;;;;;6164263;23;20047;-90
2021/05/10 06:12:48;;;;;;;7.30;1.63;;;18.10;99.90;;;;;;6251657;23;20017;-88
2021/05/10 06:15:14;;;;;;;4.28;1.65;;;18.10;99.90;;;;;;6240357;23;20371;-90
2021/05/10 06:17:41;;;;;;;4.38;1.67;;;18.20;99.90;;;;;;6214244;23;20050;-89
2021/05/10 06:20:10;;;;;;;2.75;1.38;;;18.20;99.90;;;;;;6214110;23;20020;-89
2021/05/10 06:22:37;;;;;;;6.75;1.58;;;18.40;99.90;;;;;;6214490;23;20402;-88
2021/05/10 06:25:06;;;;;;;4.93;1.58;;;18.40;99.90;;;;;;6189421;23;20035;-87
2021/05/10 06:27:32;;;;;;;5.50;1.35;;;18.50;99.90;;;;;;6241457;23;20073;-89
2021/05/10 06:29:58;;;;;;;5.05;1.52;;;18.50;99.90;;;;;;6241514;23;20012;-91
2021/05/10 06:32:24;;;;;;;7.00;1.10;;;18.60;99.90;;;;;;6214199;23;20016;-89
2021/05/10 06:34:50;;;;;;;4.97;1.42;;;18.70;99.90;;;;;;6241032;23;20405;-91
2021/05/10 06:37:21;;;;;;;3.50;1.08;;;18.80;99.90;;;;;;6213674;23;20530;-89
2021/05/10 06:39:47;;;;;;;5.78;1.40;;;18.90;99.90;;;;;;6201883;23;20377;-91
2021/05/10 06:42:14;;;;;;;2.83;1.58;;;19.00;99.90;;;;;;6241909;23;20020;-91
2021/05/10 06:44:40;;;;;;;8.05;1.58;;;19.10;99.90;;;;;;6216262;23;20042;-88
2021/05/10 06:47:06;;;;;;;12.63;1.85;;;19.20;99.90;;;;;;6216805;23;20095;-86
2021/05/10 06:49:32;;;;;;;6.35;1.40;;;19.30;99.90;;;;;;6243003;22;20030;-90
2021/05/10 06:51:57;;;;;;;4.45;1.40;;;19.30;99.90;;;;;;6253565;23;20016;-89
2021/05/10 06:54:23;;;;;;;6.18;1.45;;;19.30;99.90;;;;;;6242123;23;20035;-91
2021/05/10 06:56:49;;;;;;;6.40;1.25;;;19.40;99.90;;;;;;6216181;23;20096;-91
2021/05/10 06:59:15;;;;;;;8.50;1.50;;;19.40;99.90;;;;;;6215131;23;20012;-92
2021/05/10 07:01:40;;;;;;;8.32;1.85;;;19.40;99.90;;;;;;6190501;23;20446;-90
2021/05/10 07:04:06;;;;;;;14.63;1.63;;;19.40;99.90;;;;;;6215643;23;20020;-87
2021/05/10 07:06:32;;;;;;;3.03;1.42;;;19.30;99.90;;;;;;6215843;23;20054;-89
2021/05/10 07:08:59;;;;;;;6.22;1.17;;;19.30;99.90;;;;;;6215938;23;20016;-90
2021/05/10 07:11:28;;;;;;;1.70;1.00;;;19.40;99.90;;;;;;6241317;23;20018;-89
2021/05/10 07:13:54;;;;;;;3.33;1.25;;;19.60;99.90;;;;;;6215648;23;20047;-90
2021/05/10 07:16:19;;;;;;;7.80;1.15;;;19.60;99.90;;;;;;6240756;23;20458;-91
2021/05/10 07:18:45;;;;;;;4.90;1.20;;;19.70;99.90;;;;;;6215342;23;20024;-92
2021/05/10 07:21:11;;;;;;;11.20;1.45;;;19.90;99.90;;;;;;6214680;23;20425;-87
2021/05/10 07:23:37;;;;;;;4.00;1.33;;;20.00;99.90;;;;;;6190670;23;20434;-91
2021/05/10 07:26:03;;;;;;;2.53;1.10;;;20.20;99.90;;;;;;6216283;23;20024;-91
2021/05/10 07:28:29;;;;;;;10.10;1.00;;;20.30;99.90;;;;;;6215086;23;20040;-90
2021/05/10 07:30:55;;;;;;;7.30;1.77;;;20.40;99.90;;;;;;6189725;23;20027;-91
2021/05/10 07:33:21;;;;;;;6.75;1.20;;;20.50;99.90;;;;;;6188428;23;20024;-90
2021/05/10 07:35:49;;;;;;;4.88;1.00;;;20.60;99.90;;;;;;6190962;23;20059;-89
2021/05/10 07:38:15;;;;;;;14.82;1.13;;;20.60;99.90;;;;;;6164567;23;20088;-89
2021/05/10 07:40:41;;;;;;;3.20;0.82;;;20.70;99.90;;;;;;6213664;23;20418;-91
2021/05/10 07:43:09;;;;;;;3.35;1.23;;;20.70;99.90;;;;;;6189977;23;20485;-89
2021/05/10 07:45:35;;;;;;;7.38;0.98;;;20.70;99.90;;;;;;6212693;23;20016;-89
2021/05/10 07:48:01;;;;;;;4.78;0.95;;;20.70;99.90;;;;;;6214810;23;20456;-90
2021/05/10 07:50:28;;;;;;;8.77;1.20;;;20.70;99.90;;;;;;6241602;22;20020;-90
2021/05/10 07:52:56;;;;;;;4.13;0.82;;;20.70;99.90;;;;;;6240856;23;20020;-89
2021/05/10 07:55:23;;;;;;;3.15;0.52;;;20.80;99.90;;;;;;6213979;23;20040;-90
2021/05/10 07:57:51;;;;;;;3.90;0.70;;;20.90;99.90;;;;;;6214817;23;20027;-91
2021/05/10 08:00:32;;;;;;;1.00;0.77;;;21.00;99.90;;;;;;6240261;23;20020;-89
2021/05/10 08:03:17;;;;;;;4.30;0.88;;;21.00;99.90;;;;;;6218213;23;20020;-91
2021/05/10 08:05:44;;;;;;;7.60;0.88;;;21.00;99.90;;;;;;6201807;23;20095;-89
2021/05/10 08:08:15;;;;;;;4.55;0.50;;;21.10;99.90;;;;;;6241247;23;20467;-88
2021/05/10 08:10:41;;;;;;;2.72;1.10;;;21.20;99.90;;;;;;6241179;23;20020;-90
2021/05/10 08:13:09;;;;;;;3.72;0.85;;;21.30;99.90;;;;;;6241760;23;20445;-87
2021/05/10 08:15:35;;;;;;;5.72;0.60;;;21.30;99.90;;;;;;6240545;23;20016;-89
2021/05/10 08:18:01;;;;;;;9.88;1.10;;;21.20;99.90;;;;;;6214675;23;20435;-88
2021/05/10 08:20:27;;;;;;;8.45;1.10;;;21.30;99.90;;;;;;6213789;23;20051;-88
2021/05/10 08:22:52;;;;;;;1.85;0.90;;;21.20;99.90;;;;;;6214828;23;20054;-89
2021/05/10 08:25:19;;;;;;;6.30;0.95;;;21.00;99.90;;;;;;6214186;23;20397;-86
2021/05/10 08:27:45;;;;;;;1.27;0.63;;;20.90;99.90;;;;;;6240864;23;20016;-89
2021/05/10 08:30:12;;;;;;;5.30;1.02;;;20.80;99.90;;;;;;6189042;23;20817;-88
2021/05/10 08:32:39;;;;;;;3.85;0.60;;;20.70;99.90;;;;;;6213693;23;20016;-88
2021/05/10 08:35:05;;;;;;;12.35;0.80;;;20.60;99.90;;;;;;6241191;23;20020;-88
2021/05/10 08:37:31;;;;;;;1.02;0.55;;;20.50;99.90;;;;;;6240316;23;20102;-87
2021/05/10 08:39:58;;;;;;;4.68;0.50;;;20.50;99.90;;;;;;6241014;23;20027;-87
2021/05/10 08:42:25;;;;;;;3.53;0.50;;;20.30;99.90;;;;;;6188862;23;20020;-87
2021/05/10 08:44:51;;;;;;;2.60;0.45;;;20.20;99.90;;;;;;6241031;23;20595;-87
2021/05/10 08:47:20;;;;;;;0.70;0.32;;;20.10;99.90;;;;;;6241041;23;20012;-87
2021/05/10 08:49:47;;;;;;;4.05;0.30;;;20.00;99.90;;;;;;6244176;22;20435;-88
2021/05/10 08:52:13;;;;;;;8.13;0.40;;;19.90;99.90;;;;;;6189443;23;20094;-88
2021/05/10 08:54:39;;;;;;;0.28;0.20;;;19.90;99.90;;;;;;6239799;23;20047;-88
2021/05/10 08:57:05;;;;;;;0.85;0.20;;;19.90;99.90;;;;;;6240749;23;20070;-87
2021/05/10 08:59:31;;;;;;;2.35;0.40;;;20.00;99.90;;;;;;6240194;23;20044;-88
2021/05/10 09:01:59;;;;;;;0.88;0.20;;;20.00;99.90;;;;;;6240556;23;20023;-88
2021/05/10 09:04:42;;;;;;;0.80;0.35;;;19.90;99.90;;;;;;6213525;23;20447;-87
2021/05/10 09:07:23;;;;;;;0.35;0.20;;;19.90;99.90;;;;;;6250699;23;20023;-88
2021/05/10 09:10:00;;;;;;;1.35;0.22;;;20.00;99.90;;;;;;6224457;23;20012;-87
2021/05/10 09:12:46;;;;;;;0.32;0.30;;;20.00;99.90;;;;;;6212820;23;20016;-87
2021/05/10 09:15:25;;;;;;;1.00;0.30;;;20.20;99.90;;;;;;6240102;23;20035;-87
2021/05/10 09:17:56;;;;;;;0.60;0.30;;;20.30;99.90;;;;;;6237272;23;20027;-87
2021/05/10 09:20:28;;;;;;;0.93;0.63;;;20.40;99.90;;;;;;6250094;23;20044;-86
2021/05/10 09:22:59;;;;;;;0.50;0.30;;;20.50;99.90;;;;;;6240665;23;20091;-87
2021/05/10 09:25:29;;;;;;;1.85;0.30;;;20.70;99.90;;;;;;6239590;23;20377;-86
2021/05/10 09:28:08;;;;;;;4.93;0.40;;;20.90;99.90;;;;;;6213422;23;20011;-87
2021/05/10 09:30:34;;;;;;;2.03;0.40;;;21.00;99.90;;;;;;6222821;23;20457;-87
2021/05/10 09:33:00;;;;;;;1.17;0.20;;;21.10;99.90;;;;;;6188602;23;20016;-88
2021/05/10 09:35:28;;;;;;;0.55;0.20;;;21.00;99.90;;;;;;6213309;23;20039;-86
2021/05/10 09:38:00;;;;;;;3.40;0.43;;;21.00;99.90;;;;;;6240719;23;20016;-88
2021/05/10 09:40:31;;;;;;;0.43;0.20;;;20.90;99.90;;;;;;6239793;23;20319;-87
2021/05/10 09:42:58;;;;;;;2.15;0.40;;;20.80;99.90;;;;;;6175447;23;20020;-86
2021/05/10 09:45:44;;;;;;;2.92;0.50;;;20.80;99.90;;;;;;6239876;23;20450;-87
2021/05/10 09:48:22;;;;;;;0.40;0.40;;;20.80;99.90;;;;;;6240291;23;20016;-87
2021/05/10 09:50:49;;;;;;;0.77;0.40;;;20.60;99.90;;;;;;6243350;22;20047;-88
2021/05/10 09:53:29;;;;;;;1.80;0.40;;;20.60;99.90;;;;;;6213526;23;20024;-88
2021/05/10 09:55:58;;;;;;;;;;;20.80;99.90;;;;;;6214742;23;20019;-88
2021/05/10 09:58:25;;;;;;;3.15;0.85;;;20.90;99.90;;;;;;6213008;23;20049;-87
2021/05/10 10:00:58;;;;;;;0.65;0.40;;;20.90;99.90;;;;;;6213489;23;20016;-88
2021/05/10 10:03:29;;;;;;;2.67;0.50;;;21.10;99.90;;;;;;6213263;23;20024;-88
2021/05/10 10:06:00;;;;;;;2.38;0.60;;;21.10;99.90;;;;;;6213344;23;20801;-87
2021/05/10 10:08:27;;;;;;;3.22;0.60;;;21.10;99.90;;;;;;6239821;23;20013;-86
2021/05/10 10:10:54;;;;;;;4.20;0.40;;;21.30;99.90;;;;;;6239709;23;20328;-87
2021/05/10 10:13:20;;;;;;;3.13;0.75;;;21.20;99.90;;;;;;6214925;23;20099;-87
2021/05/10 10:15:47;;;;;;;1.65;0.50;;;21.20;99.90;;;;;;6188048;23;20055;-87
2021/05/10 10:18:16;;;;;;;1.25;0.50;;;21.10;99.90;;;;;;6215322;23;20024;-87
2021/05/10 10:20:43;;;;;;;0.95;0.60;;;20.90;99.90;;;;;;6214243;23;20020;-88
2021/05/10 10:23:12;;;;;;;1.92;0.73;;;21.10;99.90;;;;;;6215279;23;20020;-87
2021/05/10 10:25:39;;;;;;;2.55;0.70;;;21.20;99.90;;;;;;6214293;23;20020;-86
2021/05/10 10:28:06;;;;;;;4.38;0.70;;;21.20;99.90;;;;;;6190099;23;20346;-87
2021/05/10 10:30:36;;;;;;;1.30;0.80;;;21.20;99.90;;;;;;6214521;23;20335;-88
2021/05/10 10:33:06;;;;;;;0.73;0.70;;;21.10;99.90;;;;;;6241129;23;20020;-88
2021/05/10 10:35:35;;;;;;;2.65;0.80;;;21.10;99.90;;;;;;6224773;23;20066;-86
2021/05/10 10:38:02;;;;;;;0.70;0.40;;;20.90;99.90;;;;;;6242079;23;20028;-88
2021/05/10 10:40:28;;;;;;;1.95;0.40;;;19.70;99.90;;;;;;6214973;23;20019;-87
2021/05/10 10:43:21;;;;;;;1.67;0.60;;;18.60;99.90;;;;;;6189617;23;20461;-88
2021/05/10 10:46:21;;;;;;;0.30;0.30;;;17.90;99.90;;;;;;6240923;23;20020;-88
2021/05/10 10:48:48;;;;;;;0.40;0.40;;;17.20;99.90;;;;;;6241209;23;20457;-89
2021/05/10 10:51:15;;;;;;;0.95;0.40;;;16.80;99.90;;;;;;6241994;22;20493;-88
2021/05/10 10:53:46;;;;;;;0.45;0.45;;;16.50;99.90;;;;;;6241024;23;20024;-89
2021/05/10 10:56:13;;;;;;;0.52;0.30;;;16.20;99.90;;;;;;6242157;23;20023;-88
2021/05/10 10:58:43;;;;;;;0.32;0.30;;;16.10;99.90;;;;;;6240935;23;20331;-89
2021/05/10 11:01:19;;;;;;;1.02;0.50;;;16.00;99.90;;;;;;6242108;23;20017;-87
2021/05/10 11:03:47;;;;;;;0.50;0.40;;;15.90;99.90;;;;;;6250869;23;20012;-88
2021/05/10 11:06:15;;;;;;;1.05;0.47;;;15.90;99.90;;;;;;6241619;23;20105;-88
2021/05/10 11:08:51;;;;;;;0.88;0.38;;;15.90;99.90;;;;;;6214136;23;20339;-89
2021/05/10 11:11:35;;;;;;;4.38;0.70;;;15.80;99.90;;;;;;6251704;23;20016;-88
2021/05/10 11:14:04;;;;;;;1.65;0.43;;;15.70;99.90;;;;;;6241784;23;20023;-88
2021/05/10 11:16:56;;;;;;;1.95;0.73;;;15.80;99.90;;;;;;6215295;23;20016;-88
2021/05/10 11:19:28;;;;;;;0.40;0.40;;;15.90;99.90;;;;;;6251682;23;20389;-89
2021/05/10 11:21:54;;;;;;;0.65;0.38;;;15.90;99.90;;;;;;6213617;23;20019;-88
2021/05/10 11:24:33;;;;;;;7.20;1.00;;;16.10;99.90;;;;;;6242012;23;20030;-88
2021/05/10 11:27:02;;;;;;;0.38;0.38;;;16.10;99.90;;;;;;6241017;23;20020;-89
2021/05/10 11:29:29;;;;;;;2.65;0.32;;;16.30;99.90;;;;;;6215830;23;20023;-88
2021/05/10 11:32:15;;;;;;;0.63;0.40;;;16.50;99.90;;;;;;6241021;23;20071;-88
2021/05/10 11:34:41;;;;;;;0.50;0.40;;;16.70;99.90;;;;;;6240672;23;20019;-89
2021/05/10 11:37:07;;;;;;;0.65;0.50;;;16.80;99.90;;;;;;6214781;23;20016;-88
2021/05/10 11:39:39;;;;;;;0.68;0.50;;;16.90;99.90;;;;;;6214823;23;20020;-89
2021/05/10 11:42:07;;;;;;;0.50;0.50;;;16.90;99.90;;;;;;6214630;23;20016;-88
2021/05/10 11:44:38;;;;;;;2.67;0.55;;;16.90;99.90;;;;;;6240944;23;20020;-88
2021/05/10 11:47:08;;;;;;;1.17;0.60;;;16.90;99.90;;;;;;6241050;23;20020;-88
2021/05/10 11:49:39;;;;;;;2.72;0.70;;;17.00;99.90;;;;;;6217334;22;20023;-87
2021/05/10 11:52:15;;;;;;;0.57;0.52;;;17.10;99.90;;;;;;6250224;23;20023;-88
2021/05/10 11:54:53;;;;;;;2.13;1.10;;;17.20;99.90;;;;;;6223395;23;20051;-87
2021/05/10 11:57:22;;;;;;;1.00;0.70;;;17.40;99.90;;;;;;6224586;23;20070;-87
2021/05/10 11:59:51;;;;;;;1.38;0.60;;;17.30;99.90;;;;;;6239891;23;20016;-87
2021/05/10 12:02:22;;;;;;;0.60;0.60;;;17.40;99.90;;;;;;6240841;23;20024;-88
2021/05/10 12:04:51;;;;;;;1.30;0.68;;;17.30;99.90;;;;;;6223761;23;20016;-87
2021/05/10 12:07:18;;;;;;;0.82;0.82;;;17.20;99.90;;;;;;6214307;23;20438;-90
2021/05/10 12:09:47;;;;;;;1.08;0.73;;;17.10;99.90;;;;;;6189021;23;20020;-87
2021/05/10 12:12:12;;;;;;;1.73;1.00;;;17.00;99.90;;;;;;6214382;23;20094;-88
2021/05/10 12:14:43;;;;;;;2.35;1.17;;;17.00;99.90;;;;;;6214499;23;20052;-87
2021/05/10 12:17:10;;;;;;;2.38;1.00;;;17.00;99.90;;;;;;6224857;23;20012;-88
2021/05/10 12:19:55;;;;;;;1.88;1.00;;;17.00;99.90;;;;;;6241017;23;20047;-87
2021/05/10 12:22:25;;;;;;;2.78;1.05;;;17.10;99.90;;;;;;6241083;23;20319;-89
2021/05/10 12:25:07;;;;;;;1.65;1.05;;;17.20;99.90;;;;;;6240145;23;20439;-88
2021/05/10 12:27:45;;;;;;;3.10;1.00;;;17.30;99.90;;;;;;6241388;23;20024;-88
2021/05/10 12:30:25;;;;;;;1.08;0.90;;;17.50;99.90;;;;;;6241104;23;20017;-88
2021/05/10 12:32:54;;;;;;;2.00;1.33;;;17.70;99.90;;;;;;6213483;23;20097;-88
2021/05/10 12:35:26;;;;;;;1.27;1.00;;;17.90;99.90;;;;;;6240311;23;20472;-87
2021/05/10 12:37:53;;;;;;;3.47;1.35;;;18.20;99.90;;;;;;6213138;23;20586;-89
2021/05/10 12:40:22;;;;;;;1.77;1.00;;;18.20;99.90;;;;;;6240676;23;20012;-88
2021/05/10 12:43:10;;;;;;;1.38;1.08;;;18.20;99.90;;;;;;6239707;23;20020;-88
2021/05/10 12:45:41;;;;;;;1.25;1.08;;;18.30;99.90;;;;;;6224027;23;20099;-88
2021/05/10 12:48:18;;;;;;;3.22;1.30;;;18.40;99.90;;;;;;6240008;23;20016;-88
2021/05/10 12:50:50;;;;;;;2.08;1.10;;;18.30;99.90;;;;;;6240251;22;20024;-86
2021/05/10 12:53:38;;;;;;;2.15;1.10;;;18.30;99.90;;;;;;6251229;23;20020;-87
2021/05/10 12:56:09;;;;;;;1.20;1.00;;;18.30;99.90;;;;;;6239901;23;20092;-88